Terminal Aerodrome Forecast
Issued by NWS Missoula, MT

Home | Current Version | Previous Version | Text Only | Print | Product List | Glossary On
Versions: 1 2 3 4 5 6 7 8 9 10 11 12 13 14 15 16
000
FTUS45 KMSO 260137 AAA
TAFBTM
TAF AMD
KBTM 260137Z 2602/2624 27008KT P6SM VCSH SCT030 OVC050
     FM260400 09008KT 5SM -SHRASN BKN030 OVC040
     FM261000 02008KT 2SM -SN BR BKN010 OVC020
     FM261900 33007KT 5SM -SHSNRA BR BKN030=

USA.gov is the U.S. government's official web portal to all federal, state and local government web resources and services.